Arvin, California
Current Conditions -  °F | °C
As of 2:54 PM on Friday 31 Oct 2014 (Local Time) from KBFL Reporting Station
Clear Clear  
Wind Chill: 74°   Ceiling: Unl
Heat Index: 74°   Visibility: 10mi
Dew Point: 49°   Wind: 5mph
Humidity: 41%   Direction: 330°NNW
Pressure: 29.77"   Gusts: NA
Location:  35.21°N, 118.82°W
Report Text: KBFL 312154Z 33004KT 10SM CLR 23/09 A2977 RMK AO2 SLP078 T02330094
Loading
Personal Weather Stations






























Interactive Weather Map
Tropical Storm Tracking
New forecast layout! Learn more

10-Day Weather Forecast

Advertisements
Track Severe Weather on mobile